createdAt,value
2023-03-26T00:00:28.782Z,0.63
2023-03-26T00:01:31.151Z,0.80
2023-03-26T00:02:32.865Z,0.53
2023-03-26T00:03:35.243Z,0.50
2023-03-26T00:04:36.975Z,0.50
2023-03-26T00:05:39.560Z,0.45
2023-03-26T00:06:41.475Z,0.30
2023-03-26T00:07:43.356Z,0.60
2023-03-26T00:08:45.655Z,0.50
2023-03-26T00:09:47.201Z,0.40
2023-03-26T00:10:48.771Z,0.50
2023-03-26T00:11:50.342Z,0.60
2023-03-26T00:12:52.000Z,0.60
2023-03-26T00:13:53.876Z,0.60
2023-03-26T00:14:55.497Z,1.40
2023-03-26T00:15:57.175Z,1.50
2023-03-26T00:16:58.920Z,0.70
2023-03-26T00:18:00.853Z,0.50
2023-03-26T00:19:02.636Z,0.55
2023-03-26T00:20:04.793Z,0.40
2023-03-26T00:21:07.175Z,0.35
2023-03-26T00:22:08.866Z,0.30
2023-03-26T00:23:11.134Z,0.40
2023-03-26T00:24:13.530Z,0.40
2023-03-26T00:25:15.129Z,0.63
2023-03-26T00:26:17.113Z,0.90
2023-03-26T00:27:19.013Z,0.40
2023-03-26T00:28:20.655Z,0.40
2023-03-26T00:29:22.679Z,0.60
2023-03-26T00:30:24.585Z,0.50
2023-03-26T00:31:26.709Z,0.40
2023-03-26T00:32:28.425Z,0.43
2023-03-26T00:33:30.399Z,0.60
2023-03-26T00:34:31.981Z,0.50
2023-03-26T00:35:37.335Z,0.50
2023-03-26T00:36:39.189Z,0.50
2023-03-26T00:37:40.918Z,0.50
2023-03-26T00:38:42.843Z,0.50
2023-03-26T00:39:44.835Z,0.35
2023-03-26T00:40:46.519Z,0.40
2023-03-26T00:41:48.114Z,0.70
2023-03-26T00:42:49.713Z,0.80
2023-03-26T00:43:55.993Z,0.60
2023-03-26T00:44:57.594Z,0.68
2023-03-26T00:45:59.730Z,0.50
2023-03-26T00:47:01.325Z,0.52
2023-03-26T00:48:03.343Z,0.52
2023-03-26T00:49:05.096Z,0.68
2023-03-26T00:50:07.522Z,0.40
2023-03-26T00:51:12.487Z,0.80
2023-03-26T00:52:14.055Z,0.75
2023-03-26T00:53:18.200Z,0.70
2023-03-26T00:54:20.069Z,0.70
2023-03-26T00:55:21.841Z,0.50
2023-03-26T00:56:23.863Z,0.52
2023-03-26T00:57:34.896Z,0.70
2023-03-26T00:58:37.399Z,0.73
2023-03-26T00:59:39.884Z,0.50
2023-03-26T01:00:52.258Z,0.68
2023-03-26T01:01:53.871Z,0.70
2023-03-26T01:02:55.621Z,0.60
2023-03-26T01:04:07.376Z,0.50
2023-03-26T01:05:29.306Z,0.70
2023-03-26T01:06:32.546Z,0.40
2023-03-26T01:07:34.112Z,0.40
2023-03-26T01:08:38.363Z,0.30
2023-03-26T01:09:41.755Z,0.90
2023-03-26T01:10:45.018Z,0.50
2023-03-26T01:11:47.417Z,0.50
2023-03-26T01:12:49.002Z,0.40
2023-03-26T01:14:06.375Z,0.70
2023-03-26T01:15:08.370Z,0.40
2023-03-26T01:16:18.756Z,0.60
2023-03-26T01:17:21.132Z,0.60
2023-03-26T01:18:23.616Z,0.90
2023-03-26T01:19:25.325Z,0.88
2023-03-26T01:20:27.638Z,0.70
2023-03-26T01:21:29.661Z,0.80
2023-03-26T01:22:31.350Z,0.52
2023-03-26T01:23:37.865Z,0.63
2023-03-26T01:24:39.716Z,1.02
2023-03-26T01:25:43.804Z,0.70
2023-03-26T01:27:04.986Z,0.53
2023-03-26T01:28:07.364Z,0.38
2023-03-26T01:29:12.700Z,0.50
2023-03-26T01:30:17.360Z,0.50
2023-03-26T01:31:39.245Z,0.35
2023-03-26T01:32:53.834Z,0.30
2023-03-26T01:34:00.606Z,0.45
2023-03-26T01:35:08.721Z,0.40
2023-03-26T01:36:13.062Z,0.50
2023-03-26T01:37:21.652Z,0.45
2023-03-26T01:38:27.857Z,0.40
2023-03-26T01:39:34.618Z,0.50
2023-03-26T01:40:37.421Z,0.55
2023-03-26T01:41:46.924Z,0.60
2023-03-26T01:42:52.203Z,0.30
2023-03-26T01:43:53.790Z,0.45
2023-03-26T01:44:58.219Z,0.50
2023-03-26T01:46:01.193Z,0.40
2023-03-26T01:47:03.674Z,0.60
2023-03-26T01:48:06.416Z,0.50
2023-03-26T01:49:08.589Z,0.40
2023-03-26T01:50:10.381Z,0.43
2023-03-26T01:51:13.547Z,0.30
2023-03-26T01:52:17.526Z,0.52
2023-03-26T01:53:19.194Z,0.40
2023-03-26T01:54:23.428Z,0.40
2023-03-26T01:55:39.757Z,0.60
2023-03-26T01:56:53.297Z,0.50
2023-03-26T01:58:00.696Z,0.40
2023-03-26T01:59:21.178Z,0.38
2023-03-26T02:00:29.440Z,0.43
2023-03-26T02:01:36.658Z,0.40
2023-03-26T02:02:58.735Z,0.40
2023-03-26T02:04:06.109Z,0.40
2023-03-26T02:05:13.048Z,0.43
2023-03-26T02:06:26.011Z,0.30
2023-03-26T02:07:33.491Z,0.47
2023-03-26T02:08:37.352Z,0.40
2023-03-26T02:09:47.738Z,0.60
2023-03-26T02:10:55.970Z,0.30
2023-03-26T02:11:57.791Z,0.77
2023-03-26T02:12:59.789Z,0.60
2023-03-26T02:14:01.353Z,0.45
2023-03-26T02:15:03.259Z,0.50
2023-03-26T02:16:07.435Z,0.50
2023-03-26T02:17:09.819Z,0.77
2023-03-26T02:18:11.369Z,0.90
2023-03-26T02:19:13.581Z,0.70
2023-03-26T02:20:16.092Z,0.88
2023-03-26T02:21:19.515Z,0.60
2023-03-26T02:22:21.105Z,0.97
2023-03-26T02:23:22.964Z,0.65
2023-03-26T02:24:24.817Z,0.60
2023-03-26T02:25:26.746Z,0.70
2023-03-26T02:26:29.373Z,9.15
2023-03-26T02:27:31.155Z,6.30
2023-03-26T02:28:32.687Z,1.70
2023-03-26T02:29:37.061Z,0.80
2023-03-26T02:32:23.056Z,0.50
2023-03-26T02:33:24.643Z,0.90
2023-03-26T02:34:26.162Z,1.27
2023-03-26T02:35:27.856Z,1.00
2023-03-26T02:36:29.798Z,0.90
2023-03-26T02:37:31.797Z,1.20
2023-03-26T02:38:33.390Z,0.90
2023-03-26T02:39:35.357Z,1.80
2023-03-26T02:40:37.089Z,2.15
2023-03-26T02:41:39.050Z,3.25
2023-03-26T02:42:40.588Z,2.30
2023-03-26T02:43:42.131Z,2.77
2023-03-26T02:44:43.687Z,2.03
2023-03-26T02:45:45.286Z,1.20
2023-03-26T02:46:46.776Z,0.80
2023-03-26T02:47:48.343Z,0.50
2023-03-26T02:48:49.945Z,0.70
2023-03-26T02:49:51.556Z,0.80
2023-03-26T02:50:53.262Z,0.70
2023-03-26T02:51:54.839Z,0.90
2023-03-26T02:52:56.655Z,0.60
2023-03-26T02:53:58.577Z,0.40
2023-03-26T02:55:00.045Z,1.00
2023-03-26T02:56:01.577Z,0.80
2023-03-26T02:57:03.123Z,0.63
2023-03-26T02:58:04.657Z,0.70
2023-03-26T02:59:06.186Z,0.75
2023-03-26T03:00:08.148Z,0.52
2023-03-26T03:01:09.724Z,0.85
2023-03-26T03:02:11.363Z,1.10
2023-03-26T03:03:13.663Z,0.90
2023-03-26T03:04:15.269Z,0.80
2023-03-26T03:05:16.848Z,0.60
2023-03-26T03:06:19.157Z,0.98
2023-03-26T03:07:20.577Z,0.80
2023-03-26T03:08:23.076Z,0.82
2023-03-26T03:09:24.568Z,0.82
2023-03-26T03:10:26.685Z,0.93
2023-03-26T03:11:28.254Z,0.85
2023-03-26T03:12:29.773Z,0.60
2023-03-26T03:13:31.288Z,0.70
2023-03-26T03:14:32.840Z,1.13
2023-03-26T03:15:34.870Z,0.85
2023-03-26T03:16:36.774Z,0.85
2023-03-26T03:17:38.781Z,0.95
2023-03-26T03:18:40.570Z,1.10
2023-03-26T03:19:42.110Z,0.60
2023-03-26T03:20:43.661Z,1.27
2023-03-26T03:21:45.220Z,5.00
2023-03-26T03:22:46.752Z,6.75
2023-03-26T03:23:48.291Z,6.43
2023-03-26T03:24:49.774Z,1.50
2023-03-26T03:25:51.434Z,1.63
2023-03-26T03:26:53.020Z,1.38
2023-03-26T03:27:54.521Z,1.45
2023-03-26T03:28:57.562Z,1.83
2023-03-26T03:29:59.113Z,1.73
2023-03-26T03:31:00.705Z,1.40
2023-03-26T03:32:02.261Z,5.28
2023-03-26T03:33:04.259Z,12.80
2023-03-26T03:34:05.959Z,10.43
2023-03-26T03:35:07.628Z,6.43
2023-03-26T03:36:10.371Z,7.95
2023-03-26T03:37:21.798Z,3.35
2023-03-26T03:38:23.360Z,2.30
2023-03-26T03:39:24.925Z,2.22
2023-03-26T03:40:26.654Z,2.03
2023-03-26T03:41:29.177Z,1.83
2023-03-26T03:42:30.702Z,1.58
2023-03-26T03:43:32.280Z,1.98
2023-03-26T03:44:34.300Z,1.75
2023-03-26T03:45:36.079Z,2.07
2023-03-26T03:46:37.879Z,1.98
2023-03-26T03:47:40.016Z,2.05
2023-03-26T03:48:41.598Z,2.30
2023-03-26T03:49:43.126Z,1.92
2023-03-26T03:50:44.820Z,1.70
2023-03-26T03:51:46.364Z,2.40
2023-03-26T03:52:47.846Z,1.90
2023-03-26T03:53:49.577Z,2.25
2023-03-26T03:54:51.132Z,2.05
2023-03-26T03:55:54.161Z,1.97
2023-03-26T03:56:56.198Z,2.20
2023-03-26T03:57:58.029Z,2.10
2023-03-26T03:58:59.654Z,1.90
2023-03-26T04:00:01.264Z,2.03
2023-03-26T04:01:02.806Z,2.15
2023-03-26T04:02:04.447Z,2.28
2023-03-26T04:03:06.096Z,2.00
2023-03-26T04:04:07.932Z,2.40
2023-03-26T04:05:09.654Z,2.17
2023-03-26T04:06:11.179Z,2.40
2023-03-26T04:07:12.726Z,1.80
2023-03-26T04:08:14.631Z,1.92
2023-03-26T04:09:16.173Z,2.30
2023-03-26T04:10:18.029Z,2.03
2023-03-26T04:11:19.916Z,2.30
2023-03-26T04:12:21.846Z,3.03
2023-03-26T04:13:23.329Z,2.50
2023-03-26T04:14:24.869Z,2.20
2023-03-26T04:15:26.509Z,2.08
2023-03-26T04:16:28.180Z,2.10
2023-03-26T04:17:29.826Z,2.38
2023-03-26T04:18:31.443Z,2.25
2023-03-26T04:19:32.953Z,2.50
2023-03-26T04:20:34.813Z,2.40
2023-03-26T04:21:36.686Z,2.15
2023-03-26T04:22:38.389Z,2.92
2023-03-26T04:23:39.958Z,2.53
2023-03-26T04:24:41.529Z,2.50
2023-03-26T04:25:44.872Z,2.33
2023-03-26T04:26:46.435Z,2.97
2023-03-26T04:27:48.411Z,2.45
2023-03-26T04:28:52.286Z,2.85
2023-03-26T04:29:54.081Z,2.60
2023-03-26T04:30:57.220Z,3.00
2023-03-26T04:31:59.221Z,3.10
2023-03-26T04:33:02.120Z,2.58
2023-03-26T04:34:07.115Z,3.08
2023-03-26T04:35:11.645Z,2.58
2023-03-26T04:36:14.642Z,2.70
2023-03-26T04:37:27.276Z,2.60
2023-03-26T04:38:29.649Z,3.30
2023-03-26T04:39:31.141Z,3.30
2023-03-26T04:40:33.032Z,3.33
2023-03-26T04:41:34.598Z,2.90
2023-03-26T04:42:36.924Z,2.72
2023-03-26T04:43:38.582Z,2.97
2023-03-26T04:44:40.268Z,3.38
2023-03-26T04:45:42.107Z,3.13
2023-03-26T04:46:43.869Z,3.45
2023-03-26T04:47:45.531Z,3.53
2023-03-26T04:48:47.946Z,3.10
2023-03-26T04:49:49.479Z,3.53
2023-03-26T04:50:50.972Z,2.80
2023-03-26T04:51:52.471Z,3.03
2023-03-26T04:52:54.863Z,2.60
2023-03-26T04:53:58.322Z,3.38
2023-03-26T04:54:59.983Z,2.97
2023-03-26T04:56:06.467Z,3.15
2023-03-26T04:57:12.348Z,3.42
2023-03-26T04:58:13.878Z,2.63
2023-03-26T04:59:18.344Z,2.88
2023-03-26T05:00:20.368Z,2.70
2023-03-26T05:01:22.177Z,3.00
2023-03-26T05:02:23.912Z,2.85
2023-03-26T05:03:25.454Z,3.10
2023-03-26T05:04:27.244Z,3.10
2023-03-26T05:05:29.688Z,3.22
2023-03-26T05:06:31.247Z,2.90
2023-03-26T05:07:32.727Z,3.40
2023-03-26T05:08:34.240Z,3.03
2023-03-26T05:09:35.815Z,3.15
2023-03-26T05:10:37.566Z,3.00
2023-03-26T05:11:39.278Z,3.15
2023-03-26T05:12:41.076Z,3.20
2023-03-26T05:13:42.796Z,2.88
2023-03-26T05:14:44.401Z,3.65
2023-03-26T05:15:45.961Z,3.22
2023-03-26T05:16:48.348Z,3.20
2023-03-26T05:17:50.016Z,3.08
2023-03-26T05:18:51.681Z,3.37
2023-03-26T05:19:53.236Z,3.30
2023-03-26T05:20:55.037Z,3.38
2023-03-26T05:21:56.816Z,3.28
2023-03-26T05:22:58.632Z,3.60
2023-03-26T05:24:00.327Z,3.53
2023-03-26T05:25:02.073Z,3.58
2023-03-26T05:26:03.781Z,3.15
2023-03-26T05:27:05.428Z,3.65
2023-03-26T05:28:06.946Z,3.05
2023-03-26T05:29:08.570Z,3.20
2023-03-26T05:30:13.180Z,3.13
2023-03-26T05:31:14.939Z,3.80
2023-03-26T05:32:16.629Z,3.78
2023-03-26T05:33:18.456Z,3.60
2023-03-26T05:34:20.967Z,4.00
2023-03-26T05:35:22.711Z,3.63
2023-03-26T05:36:24.623Z,3.55
2023-03-26T05:37:26.205Z,3.75
2023-03-26T05:38:31.061Z,3.67
2023-03-26T05:39:33.305Z,3.83
2023-03-26T05:40:34.825Z,3.83
2023-03-26T05:41:36.798Z,4.07
2023-03-26T05:42:39.078Z,3.75
2023-03-26T05:43:40.967Z,4.10
2023-03-26T05:44:42.786Z,4.00
2023-03-26T05:45:44.432Z,3.80
2023-03-26T05:46:46.072Z,4.03
2023-03-26T05:47:47.980Z,3.35
2023-03-26T05:48:49.741Z,3.67
2023-03-26T05:49:51.253Z,4.10
2023-03-26T05:50:54.151Z,3.72
2023-03-26T05:51:55.969Z,3.80
2023-03-26T05:52:57.824Z,4.15
2023-03-26T05:53:59.527Z,3.80
2023-03-26T05:55:01.174Z,3.90
2023-03-26T05:56:02.972Z,4.75
2023-03-26T05:57:05.092Z,3.63
2023-03-26T05:58:06.672Z,3.30
2023-03-26T05:59:08.801Z,3.25
2023-03-26T06:00:10.683Z,4.00
2023-03-26T06:01:13.195Z,4.00
2023-03-26T06:02:14.692Z,3.92
2023-03-26T06:03:16.312Z,3.95
2023-03-26T06:04:18.612Z,3.75
2023-03-26T06:05:20.905Z,4.28
2023-03-26T06:06:22.674Z,4.03
2023-03-26T06:07:24.465Z,3.58
2023-03-26T06:08:26.084Z,3.53
2023-03-26T06:09:27.646Z,3.58
2023-03-26T06:10:29.335Z,4.13
2023-03-26T06:11:31.438Z,3.70
2023-03-26T06:12:33.029Z,4.03
2023-03-26T06:13:34.865Z,4.10
2023-03-26T06:14:36.996Z,4.03
2023-03-26T06:15:38.779Z,4.43
2023-03-26T06:16:40.468Z,4.03
2023-03-26T06:17:42.465Z,3.83
2023-03-26T06:18:44.255Z,4.30
2023-03-26T06:19:46.015Z,3.80
2023-03-26T06:20:47.521Z,4.40
2023-03-26T06:21:49.028Z,4.47
2023-03-26T06:22:50.608Z,4.60
2023-03-26T06:23:52.234Z,4.50
2023-03-26T06:24:53.727Z,4.00
2023-03-26T06:25:55.594Z,3.92
2023-03-26T06:26:57.203Z,4.22
2023-03-26T06:27:59.062Z,4.50
2023-03-26T06:29:00.925Z,3.75
2023-03-26T06:30:02.518Z,4.60
2023-03-26T06:31:04.350Z,4.87
2023-03-26T06:32:18.483Z,4.45
2023-03-26T06:33:23.466Z,4.50
2023-03-26T06:34:26.314Z,3.80
2023-03-26T06:35:27.768Z,4.43
2023-03-26T06:36:29.217Z,4.60
2023-03-26T06:37:30.709Z,4.55
2023-03-26T06:38:32.293Z,4.53
2023-03-26T06:39:33.890Z,4.50
2023-03-26T06:40:35.431Z,3.72
2023-03-26T06:41:37.099Z,4.73
2023-03-26T06:43:09.397Z,4.75
2023-03-26T06:44:00.586Z,4.95
2023-03-26T06:45:02.180Z,4.63
2023-03-26T06:46:04.538Z,4.90
2023-03-26T06:47:06.390Z,5.15
2023-03-26T06:48:07.968Z,4.72
2023-03-26T06:49:09.617Z,4.13
2023-03-26T06:50:11.212Z,3.95
2023-03-26T06:51:12.738Z,4.90
2023-03-26T06:52:14.266Z,5.20
2023-03-26T06:53:15.775Z,4.47
2023-03-26T06:54:17.357Z,4.35
2023-03-26T06:55:19.103Z,4.60
2023-03-26T06:56:20.853Z,3.33
2023-03-26T06:57:22.687Z,4.00
2023-03-26T06:58:24.706Z,4.32
2023-03-26T06:59:26.721Z,3.55
2023-03-26T07:00:28.437Z,3.38
2023-03-26T07:01:30.207Z,3.63
2023-03-26T07:02:31.960Z,3.50
2023-03-26T07:03:33.554Z,4.03
2023-03-26T07:04:35.153Z,3.95
2023-03-26T07:05:36.973Z,3.00
2023-03-26T07:06:38.617Z,4.40
2023-03-26T07:07:46.255Z,4.20
2023-03-26T07:08:48.876Z,3.70
2023-03-26T07:09:50.930Z,4.20
2023-03-26T07:10:52.654Z,4.40
2023-03-26T07:11:54.351Z,4.13
2023-03-26T07:12:55.890Z,3.40
2023-03-26T07:13:57.440Z,3.90
2023-03-26T07:15:00.440Z,4.53
2023-03-26T07:16:02.398Z,4.30
2023-03-26T07:17:04.530Z,4.43
2023-03-26T07:18:06.175Z,4.78
2023-03-26T07:19:07.905Z,4.32
2023-03-26T07:20:09.834Z,4.05
2023-03-26T07:21:11.794Z,3.92
2023-03-26T07:22:15.680Z,4.50
2023-03-26T07:23:17.541Z,4.13
2023-03-26T07:24:19.556Z,4.38
2023-03-26T07:25:21.641Z,3.60
2023-03-26T07:26:23.509Z,3.38
2023-03-26T07:27:46.866Z,4.00
2023-03-26T07:29:03.831Z,4.00
2023-03-26T07:30:25.979Z,3.70
2023-03-26T07:31:32.277Z,3.63
2023-03-26T07:32:33.834Z,3.63
2023-03-26T07:33:38.963Z,4.57
2023-03-26T07:34:49.366Z,4.10
2023-03-26T07:35:55.457Z,3.83
2023-03-26T07:36:57.019Z,3.97
2023-03-26T07:38:10.466Z,3.92
2023-03-26T07:39:21.011Z,3.03
2023-03-26T07:40:41.192Z,3.30
2023-03-26T07:41:51.169Z,3.78
2023-03-26T07:43:06.302Z,3.50
2023-03-26T07:44:26.575Z,3.50
2023-03-26T07:45:28.365Z,3.30
2023-03-26T07:46:31.257Z,3.73
2023-03-26T07:47:33.958Z,3.30
2023-03-26T07:48:45.834Z,3.20
2023-03-26T07:49:47.769Z,2.70
2023-03-26T07:50:49.402Z,3.22
2023-03-26T07:51:50.951Z,3.80
2023-03-26T07:52:53.006Z,3.83
2023-03-26T07:53:54.732Z,3.95
2023-03-26T07:54:56.563Z,3.97
2023-03-26T07:56:00.972Z,3.10
2023-03-26T07:57:06.904Z,3.63
2023-03-26T07:58:14.649Z,3.22
2023-03-26T07:59:27.926Z,2.95
2023-03-26T08:00:33.547Z,3.25
2023-03-26T08:01:47.426Z,2.42
2023-03-26T08:03:07.905Z,2.38
2023-03-26T08:04:23.860Z,2.70
2023-03-26T08:05:33.372Z,3.10
2023-03-26T08:06:36.357Z,3.03
2023-03-26T08:08:02.793Z,2.88
2023-03-26T08:09:21.107Z,2.83
2023-03-26T08:10:22.790Z,3.08
2023-03-26T08:11:32.517Z,2.80
2023-03-26T08:12:52.616Z,3.05
2023-03-26T08:14:14.388Z,2.45
2023-03-26T08:15:19.160Z,2.80
2023-03-26T08:16:23.849Z,3.05
2023-03-26T08:17:29.868Z,2.60
2023-03-26T08:18:50.983Z,2.90
2023-03-26T08:19:55.337Z,2.75
2023-03-26T08:20:59.930Z,3.00
2023-03-26T08:22:22.404Z,2.65
2023-03-26T08:23:23.975Z,2.80
2023-03-26T08:24:36.083Z,2.40
2023-03-26T08:25:40.541Z,2.80
2023-03-26T08:26:56.964Z,2.85
2023-03-26T08:28:01.824Z,3.13
2023-03-26T08:29:10.722Z,2.92
2023-03-26T08:30:19.026Z,2.55
2023-03-26T08:31:24.263Z,2.53
2023-03-26T08:32:26.639Z,2.60
2023-03-26T08:33:28.609Z,2.53
2023-03-26T08:34:30.299Z,2.65
2023-03-26T08:35:31.848Z,1.90
2023-03-26T08:36:33.418Z,2.03
2023-03-26T08:37:35.084Z,2.20
2023-03-26T08:38:36.630Z,2.10
2023-03-26T08:39:38.450Z,2.42
2023-03-26T08:41:09.025Z,2.00
2023-03-26T08:42:10.828Z,2.05
2023-03-26T08:43:39.185Z,2.67
2023-03-26T08:44:49.998Z,1.95
2023-03-26T08:46:02.186Z,2.05
2023-03-26T08:47:22.363Z,1.77
2023-03-26T08:48:42.345Z,1.70
2023-03-26T08:49:52.102Z,1.75
2023-03-26T08:51:07.060Z,1.90
2023-03-26T08:52:23.041Z,2.20
2023-03-26T08:53:42.984Z,1.80
2023-03-26T08:54:47.342Z,1.58
2023-03-26T08:55:49.046Z,1.70
2023-03-26T08:56:56.878Z,1.65
2023-03-26T08:57:58.610Z,1.52
2023-03-26T08:59:19.899Z,1.70
2023-03-26T09:00:36.564Z,1.48
2023-03-26T09:01:56.679Z,2.00
2023-03-26T09:03:04.510Z,1.73
2023-03-26T09:04:09.108Z,1.35
2023-03-26T09:05:36.197Z,1.20
2023-03-26T09:06:43.689Z,1.40
2023-03-26T09:08:03.898Z,1.10
2023-03-26T09:09:18.758Z,1.25
2023-03-26T09:10:20.476Z,1.40
2023-03-26T09:11:28.017Z,2.20
2023-03-26T09:12:32.377Z,1.80
2023-03-26T09:13:36.841Z,1.00
2023-03-26T09:14:47.863Z,1.20
2023-03-26T09:16:07.066Z,1.70
2023-03-26T09:17:14.509Z,1.50
2023-03-26T09:18:19.092Z,1.70
2023-03-26T09:19:20.643Z,1.57
2023-03-26T09:20:40.727Z,1.08
2023-03-26T09:22:17.635Z,1.45
2023-03-26T09:23:19.076Z,1.65
2023-03-26T09:24:39.318Z,1.67
2023-03-26T09:26:10.121Z,1.60
2023-03-26T09:27:30.474Z,1.67
2023-03-26T09:28:34.829Z,1.58
2023-03-26T09:29:48.507Z,1.83
2023-03-26T09:31:09.229Z,2.08
2023-03-26T09:32:16.684Z,2.03
2023-03-26T09:33:21.088Z,1.90
2023-03-26T09:34:35.380Z,1.88
2023-03-26T09:35:36.937Z,1.70
2023-03-26T09:36:46.430Z,1.60
2023-03-26T09:37:57.473Z,1.52
2023-03-26T09:39:12.169Z,1.92
2023-03-26T09:40:17.969Z,1.67
2023-03-26T09:41:22.180Z,1.67
2023-03-26T09:42:27.034Z,1.60
2023-03-26T09:43:31.619Z,1.70
2023-03-26T09:44:39.272Z,1.20
2023-03-26T09:45:44.164Z,1.45
2023-03-26T09:46:54.706Z,2.42
2023-03-26T09:48:09.169Z,1.70
2023-03-26T09:49:29.388Z,0.98
2023-03-26T09:50:46.428Z,1.65
2023-03-26T09:51:48.247Z,1.00
2023-03-26T09:52:58.917Z,1.55
2023-03-26T09:54:06.610Z,1.10
2023-03-26T09:55:26.558Z,1.20
2023-03-26T09:56:31.158Z,1.25
2023-03-26T09:57:44.672Z,1.55
2023-03-26T09:58:46.327Z,1.30
2023-03-26T10:00:06.868Z,1.35
2023-03-26T10:01:14.658Z,1.08
2023-03-26T10:02:46.139Z,1.00
2023-03-26T10:03:57.627Z,1.13
2023-03-26T10:05:17.794Z,1.00
2023-03-26T10:06:22.013Z,1.50
2023-03-26T10:07:46.544Z,1.27
2023-03-26T10:08:48.340Z,1.23
2023-03-26T10:10:05.737Z,1.13
2023-03-26T10:11:07.699Z,1.20
2023-03-26T10:12:14.665Z,1.30
2023-03-26T10:13:36.420Z,1.08
2023-03-26T10:14:56.019Z,1.52
2023-03-26T10:15:57.551Z,1.20
2023-03-26T10:17:02.157Z,0.98
2023-03-26T10:18:03.724Z,1.15
2023-03-26T10:19:34.171Z,0.90
2023-03-26T10:21:01.869Z,0.90
2023-03-26T10:22:20.809Z,0.95
2023-03-26T10:24:01.285Z,0.70
2023-03-26T10:25:17.742Z,0.90
2023-03-26T10:26:35.288Z,1.05
2023-03-26T10:27:59.604Z,0.90
2023-03-26T10:29:01.074Z,1.05
2023-03-26T10:30:20.969Z,1.20
2023-03-26T10:31:41.127Z,0.90
2023-03-26T10:32:42.618Z,1.00
2023-03-26T10:34:03.150Z,0.77
2023-03-26T10:35:07.836Z,1.02
2023-03-26T10:36:13.751Z,1.20
2023-03-26T10:37:34.029Z,1.08
2023-03-26T10:38:44.535Z,1.00
2023-03-26T10:39:46.059Z,1.00
2023-03-26T10:40:50.895Z,0.90
2023-03-26T10:41:55.554Z,0.90
2023-03-26T10:43:09.281Z,0.90
2023-03-26T10:44:26.814Z,1.17
2023-03-26T10:45:37.793Z,0.98
2023-03-26T10:46:57.670Z,1.00
2023-03-26T10:48:02.062Z,0.90
2023-03-26T10:49:06.542Z,0.70
2023-03-26T10:50:16.000Z,0.77
2023-03-26T10:51:29.143Z,0.90
2023-03-26T10:53:00.249Z,0.70
2023-03-26T10:54:01.762Z,0.75
2023-03-26T10:55:03.295Z,0.63
2023-03-26T10:56:23.534Z,0.70
2023-03-26T10:57:46.089Z,0.55
2023-03-26T10:58:49.301Z,0.70
2023-03-26T10:59:52.447Z,0.73
2023-03-26T11:01:03.459Z,0.90
2023-03-26T11:02:29.435Z,0.55
2023-03-26T11:03:46.100Z,0.90
2023-03-26T11:05:11.117Z,0.60
2023-03-26T11:06:18.396Z,0.70
2023-03-26T11:07:27.173Z,1.20
2023-03-26T11:08:36.870Z,0.70
2023-03-26T11:09:49.585Z,1.10
2023-03-26T11:11:05.045Z,1.02
2023-03-26T11:12:25.457Z,0.50
2023-03-26T11:13:46.368Z,0.57
2023-03-26T11:14:53.814Z,0.60
2023-03-26T11:15:55.659Z,0.85
2023-03-26T11:17:39.607Z,0.57
2023-03-26T11:18:37.857Z,0.70
2023-03-26T11:19:48.721Z,0.90
2023-03-26T11:20:53.492Z,0.50
2023-03-26T11:22:07.495Z,0.70
2023-03-26T11:23:12.396Z,0.90
2023-03-26T11:24:35.613Z,0.80
2023-03-26T11:25:37.116Z,0.63
2023-03-26T11:27:14.584Z,0.40
2023-03-26T11:28:33.474Z,0.80
2023-03-26T11:29:43.929Z,0.70
2023-03-26T11:30:51.827Z,0.90
2023-03-26T11:32:01.803Z,0.68
2023-03-26T11:33:05.753Z,0.77
2023-03-26T11:34:12.370Z,0.80
2023-03-26T11:35:40.955Z,0.90
2023-03-26T11:36:48.151Z,0.88
2023-03-26T11:37:52.685Z,0.50
2023-03-26T11:38:56.032Z,0.90
2023-03-26T11:39:57.948Z,0.85
2023-03-26T11:41:01.378Z,0.50
2023-03-26T11:42:07.541Z,0.73
2023-03-26T11:43:11.621Z,0.60
2023-03-26T11:44:32.414Z,0.80
2023-03-26T11:45:39.323Z,0.60
2023-03-26T11:46:44.009Z,0.80
2023-03-26T11:47:48.219Z,0.73
2023-03-26T11:48:52.758Z,0.60
2023-03-26T11:49:55.604Z,0.60
2023-03-26T11:51:07.357Z,0.70
2023-03-26T11:52:11.422Z,0.60
2023-03-26T11:53:14.724Z,0.60
2023-03-26T11:54:16.299Z,0.75
2023-03-26T11:55:18.056Z,0.60
2023-03-26T11:56:19.587Z,0.50
2023-03-26T11:57:25.799Z,0.65
2023-03-26T11:58:30.107Z,0.70
2023-03-26T11:59:57.291Z,0.70
2023-03-26T12:01:02.954Z,0.90
2023-03-26T12:02:04.505Z,0.70
2023-03-26T12:03:14.854Z,0.60
2023-03-26T12:04:17.879Z,0.70
2023-03-26T12:05:21.400Z,0.80
2023-03-26T12:06:25.214Z,0.90
2023-03-26T12:07:34.315Z,0.82
2023-03-26T12:08:39.372Z,0.73
2023-03-26T12:09:57.094Z,0.85
2023-03-26T12:11:19.511Z,0.60
2023-03-26T12:12:21.690Z,0.60
2023-03-26T12:13:28.513Z,0.57
2023-03-26T12:14:33.582Z,0.40
2023-03-26T12:15:42.776Z,0.60
2023-03-26T12:16:57.830Z,0.70
2023-03-26T12:18:17.782Z,0.70
2023-03-26T12:19:19.887Z,0.60
2023-03-26T12:20:24.672Z,0.57
2023-03-26T12:21:26.337Z,0.70
2023-03-26T12:22:38.268Z,0.60
2023-03-26T12:23:42.816Z,0.52
2023-03-26T12:24:44.341Z,0.80
2023-03-26T12:26:03.975Z,0.85
2023-03-26T12:27:17.876Z,0.57
2023-03-26T12:28:19.568Z,0.47
2023-03-26T12:29:21.075Z,0.83
2023-03-26T12:30:22.598Z,0.60
2023-03-26T12:31:24.093Z,0.60
2023-03-26T12:32:45.292Z,0.70
2023-03-26T12:34:04.628Z,0.65
2023-03-26T12:35:06.996Z,0.50
2023-03-26T12:36:20.734Z,0.50
2023-03-26T12:37:36.511Z,0.50
2023-03-26T12:38:38.405Z,0.70
2023-03-26T12:40:10.777Z,0.60
2023-03-26T12:41:07.607Z,0.60
2023-03-26T12:44:46.458Z,0.47
2023-03-26T12:44:49.732Z,0.40
2023-03-26T12:45:14.542Z,0.70
2023-03-26T12:47:57.562Z,0.70
2023-03-26T12:48:00.037Z,0.82
2023-03-26T12:49:06.398Z,0.60
2023-03-26T12:50:12.361Z,0.60
2023-03-26T12:51:18.968Z,0.60
2023-03-26T12:52:23.402Z,0.57
2023-03-26T12:53:36.940Z,0.77
2023-03-26T12:54:43.971Z,0.60
2023-03-26T12:55:48.621Z,1.02
2023-03-26T12:56:50.288Z,0.70
2023-03-26T12:58:27.167Z,0.90
2023-03-26T12:59:55.167Z,0.50
2023-03-26T13:00:57.247Z,0.65
2023-03-26T13:01:59.031Z,0.60
2023-03-26T13:03:06.866Z,0.45
2023-03-26T13:04:08.718Z,0.50
2023-03-26T13:05:28.663Z,0.60
2023-03-26T13:06:33.276Z,0.57
2023-03-26T13:08:06.426Z,0.70
2023-03-26T13:09:20.012Z,0.70
2023-03-26T13:10:47.967Z,0.68
2023-03-26T13:11:49.699Z,0.45
2023-03-26T13:12:57.934Z,0.70
2023-03-26T13:14:11.610Z,0.60
2023-03-26T13:15:35.845Z,0.50
2023-03-26T13:16:56.522Z,0.50
2023-03-26T13:17:58.567Z,0.50
2023-03-26T13:19:15.424Z,0.57
2023-03-26T13:20:23.975Z,0.60
2023-03-26T13:21:25.566Z,0.65
2023-03-26T13:22:50.728Z,0.63
2023-03-26T13:24:16.388Z,0.43
2023-03-26T13:25:21.086Z,0.60
2023-03-26T13:26:22.557Z,0.50
2023-03-26T13:27:43.691Z,0.60
2023-03-26T13:29:03.437Z,0.40
2023-03-26T13:30:31.498Z,0.70
2023-03-26T13:31:33.305Z,0.47
2023-03-26T13:32:34.875Z,0.65
2023-03-26T13:33:52.027Z,0.30
2023-03-26T13:35:04.397Z,0.50
2023-03-26T13:36:22.334Z,0.60
2023-03-26T13:37:30.645Z,1.02
2023-03-26T13:38:58.900Z,0.50
2023-03-26T13:40:04.249Z,2.00
2023-03-26T13:41:23.915Z,1.10
2023-03-26T13:42:25.410Z,1.30
2023-03-26T13:43:32.841Z,1.40
2023-03-26T13:44:34.849Z,0.50
2023-03-26T13:45:36.468Z,0.38
2023-03-26T13:46:42.891Z,0.40
2023-03-26T13:47:47.182Z,0.65
2023-03-26T13:48:51.662Z,0.32
2023-03-26T13:50:00.004Z,0.50
2023-03-26T13:51:01.493Z,0.50
2023-03-26T13:52:07.396Z,0.50
2023-03-26T13:53:14.249Z,0.50
2023-03-26T13:54:15.903Z,0.40
2023-03-26T13:55:20.746Z,0.40
2023-03-26T13:56:26.652Z,0.50
2023-03-26T13:57:34.822Z,0.32
2023-03-26T13:58:44.865Z,0.30
2023-03-26T13:59:52.808Z,0.35
2023-03-26T14:01:02.333Z,0.43
2023-03-26T14:02:12.013Z,0.40
2023-03-26T14:03:18.388Z,0.47
2023-03-26T14:04:23.006Z,0.47
2023-03-26T14:05:27.081Z,0.35
2023-03-26T14:06:35.590Z,0.75
2023-03-26T14:07:41.097Z,0.45
2023-03-26T14:08:44.987Z,0.57
2023-03-26T14:09:48.272Z,0.30
2023-03-26T14:10:53.261Z,0.30
2023-03-26T14:11:57.928Z,0.60
2023-03-26T14:13:21.501Z,0.40
2023-03-26T14:14:34.242Z,0.60
2023-03-26T14:15:35.845Z,0.50
2023-03-26T14:16:44.243Z,0.40
2023-03-26T14:17:45.728Z,0.40
2023-03-26T14:19:04.205Z,0.40
2023-03-26T14:20:18.045Z,0.40
2023-03-26T14:21:22.628Z,0.40
2023-03-26T14:22:29.600Z,0.57
2023-03-26T14:23:49.721Z,0.43
2023-03-26T14:24:51.486Z,0.50
2023-03-26T14:26:02.548Z,0.63
2023-03-26T14:27:22.930Z,0.53
2023-03-26T14:28:36.938Z,0.50
2023-03-26T14:29:57.687Z,0.60
2023-03-26T14:31:31.933Z,0.70
2023-03-26T14:32:33.679Z,0.50
2023-03-26T14:33:41.311Z,0.47
2023-03-26T14:34:42.814Z,0.50
2023-03-26T14:35:44.548Z,0.40
2023-03-26T14:37:04.927Z,0.52
2023-03-26T14:38:15.426Z,0.40
2023-03-26T14:39:23.539Z,0.50
2023-03-26T14:40:43.668Z,0.50
2023-03-26T14:41:49.359Z,0.40
2023-03-26T14:43:03.103Z,0.40
2023-03-26T14:44:14.104Z,0.50
2023-03-26T14:45:38.147Z,0.50
2023-03-26T14:46:49.160Z,0.50
2023-03-26T14:48:10.025Z,0.60